Time;durP1;ratioP1;P1;durP2;ratioP2;P2;SDS_P1;SDS_P2;PMS_P1;PMS_P2;Temp;Humidity;BMP_temperature;BMP_pressure;BME280_temperature;BME280_humidity;BME280_pressure;Samples;Min_cycle;Max_cycle;Signal;HPM_P1;HPM_P2
2021/09/15 00:01:08;;;;;;;8.52;5.70;;;19.40;96.70;;;;;;5054748;28;20017;-68
2021/09/15 00:03:36;;;;;;;11.93;5.97;;;19.60;95.30;;;;;;5058816;28;20032;-69
2021/09/15 00:06:05;;;;;;;11.68;5.63;;;19.80;94.90;;;;;;5058472;28;20024;-70
2021/09/15 00:08:32;;;;;;;9.70;5.75;;;19.90;95.90;;;;;;5058151;28;20049;-69
2021/09/15 00:10:57;;;;;;;12.02;6.40;;;19.80;95.80;;;;;;5038115;28;20025;-70
2021/09/15 00:13:23;;;;;;;10.23;5.65;;;19.70;94.90;;;;;;5053422;28;20104;-69
2021/09/15 00:15:49;;;;;;;10.85;5.40;;;20.00;94.20;;;;;;5057390;28;20389;-69
2021/09/15 00:18:15;;;;;;;10.60;5.63;;;20.00;93.30;;;;;;5057523;28;20480;-69
2021/09/15 00:20:40;;;;;;;11.20;5.75;;;20.40;92.20;;;;;;5055809;28;20029;-69
2021/09/15 00:23:06;;;;;;;8.27;5.35;;;20.30;93.90;;;;;;5050022;28;20052;-68
2021/09/15 00:25:32;;;;;;;9.68;5.18;;;20.20;92.50;;;;;;5038632;28;20410;-69
2021/09/15 00:27:58;;;;;;;9.20;5.93;;;20.20;91.70;;;;;;5046278;28;20339;-69
2021/09/15 00:30:23;;;;;;;9.48;6.13;;;20.10;94.80;;;;;;5038998;28;20037;-69
2021/09/15 00:32:49;;;;;;;8.38;5.25;;;20.00;94.90;;;;;;5039807;28;20051;-70
2021/09/15 00:35:15;;;;;;;10.63;5.45;;;19.80;95.10;;;;;;5039481;28;20377;-69
2021/09/15 00:37:40;;;;;;;16.23;6.28;;;20.00;92.20;;;;;;5030039;28;20029;-70
2021/09/15 00:40:08;;;;;;;10.25;5.07;;;20.10;92.90;;;;;;5054318;28;20119;-69
2021/09/15 00:42:34;;;;;;;8.68;5.03;;;20.10;92.70;;;;;;5055763;28;20389;-69
2021/09/15 00:45:00;;;;;;;8.27;5.00;;;20.10;92.20;;;;;;5057480;28;20029;-70
2021/09/15 00:47:28;;;;;;;9.20;5.20;;;20.10;92.10;;;;;;5056428;28;20021;-70
2021/09/15 00:49:57;;;;;;;8.30;5.00;;;20.00;91.60;;;;;;5055414;28;20029;-69
2021/09/15 00:52:23;;;;;;;7.80;4.70;;;20.10;91.50;;;;;;5053149;28;20029;-70
2021/09/15 00:54:49;;;;;;;10.25;5.00;;;20.10;91.10;;;;;;5058000;28;20040;-69
2021/09/15 00:57:14;;;;;;;10.15;4.63;;;20.10;91.10;;;;;;5056272;28;20033;-69
2021/09/15 00:59:41;;;;;;;7.22;4.63;;;20.20;90.30;;;;;;5051732;28;20031;-69
2021/09/15 01:02:06;;;;;;;8.68;4.63;;;20.30;89.00;;;;;;5055403;28;20043;-69
2021/09/15 01:04:35;;;;;;;8.60;4.80;;;20.30;89.30;;;;;;5056651;28;20017;-69
2021/09/15 01:07:04;;;;;;;6.75;4.47;;;20.20;91.10;;;;;;5057434;28;20064;-69
2021/09/15 01:09:30;;;;;;;12.93;4.78;;;20.30;89.40;;;;;;5057122;28;20045;-71
2021/09/15 01:11:57;;;;;;;9.07;4.72;;;20.40;88.60;;;;;;5055325;28;20032;-70
2021/09/15 01:14:23;;;;;;;7.55;4.85;;;20.50;87.40;;;;;;5040106;28;20417;-70
2021/09/15 01:16:50;;;;;;;8.77;4.72;;;20.50;87.80;;;;;;5057303;28;20033;-70
2021/09/15 01:19:16;;;;;;;7.57;4.18;;;20.40;88.80;;;;;;5051733;28;20028;-70
2021/09/15 01:21:42;;;;;;;7.97;4.32;;;20.40;88.80;;;;;;5055308;28;20025;-69
2021/09/15 01:24:08;;;;;;;8.13;4.68;;;20.30;89.30;;;;;;5057191;28;20321;-70
2021/09/15 01:26:37;;;;;;;9.93;4.80;;;20.30;89.60;;;;;;5056211;28;20377;-69
2021/09/15 01:29:03;;;;;;;8.25;4.60;;;20.20;89.30;;;;;;5050551;28;20362;-69
2021/09/15 01:31:29;;;;;;;9.02;4.35;;;20.20;89.70;;;;;;5043122;28;20025;-69
2021/09/15 01:33:55;;;;;;;8.05;4.68;;;20.20;89.90;;;;;;5049579;28;20448;-69
2021/09/15 01:36:21;;;;;;;7.40;4.40;;;20.10;90.00;;;;;;5057358;28;20055;-69
2021/09/15 01:38:46;;;;;;;10.20;5.32;;;20.00;90.90;;;;;;5056041;28;20025;-69
2021/09/15 01:41:12;;;;;;;8.02;4.80;;;19.80;92.90;;;;;;5054118;28;20441;-69
2021/09/15 01:43:37;;;;;;;8.07;4.40;;;19.60;93.80;;;;;;5055878;28;20154;-70
2021/09/15 01:46:03;;;;;;;7.28;4.88;;;19.60;93.70;;;;;;5055909;28;20036;-69
2021/09/15 01:48:29;;;;;;;9.20;4.85;;;19.40;94.40;;;;;;5053043;28;20032;-69
2021/09/15 01:50:54;;;;;;;7.97;5.00;;;19.30;94.90;;;;;;5056150;28;20451;-69
2021/09/15 01:53:20;;;;;;;6.97;4.72;;;19.30;94.70;;;;;;5056457;28;20116;-69
2021/09/15 01:55:46;;;;;;;8.77;4.82;;;19.20;94.90;;;;;;5051928;28;20025;-70
2021/09/15 01:58:11;;;;;;;8.40;4.70;;;19.10;95.60;;;;;;5052847;28;20029;-70
2021/09/15 02:00:37;;;;;;;11.35;5.10;;;19.10;96.10;;;;;;5054723;28;20440;-70
2021/09/15 02:03:03;;;;;;;9.32;4.88;;;19.00;96.50;;;;;;5037634;28;20095;-70
2021/09/15 02:05:30;;;;;;;10.02;5.43;;;18.90;96.20;;;;;;5053998;28;20076;-70
2021/09/15 02:07:55;;;;;;;9.05;4.93;;;18.90;96.20;;;;;;5055868;28;20052;-69
2021/09/15 02:10:21;;;;;;;9.32;4.60;;;18.80;96.20;;;;;;5038359;28;20021;-69
2021/09/15 02:12:49;;;;;;;9.95;4.90;;;18.80;96.10;;;;;;5052281;28;20029;-69
2021/09/15 02:15:15;;;;;;;9.70;5.00;;;18.80;96.00;;;;;;5055895;28;20028;-69
2021/09/15 02:17:41;;;;;;;9.02;4.70;;;18.80;96.10;;;;;;5055557;28;20368;-69
2021/09/15 02:20:08;;;;;;;7.82;5.15;;;18.80;96.90;;;;;;5055387;28;20021;-68
2021/09/15 02:22:34;;;;;;;9.80;5.43;;;18.60;97.40;;;;;;5046833;28;20021;-69
2021/09/15 02:25:01;;;;;;;12.65;5.50;;;18.50;97.80;;;;;;5055383;28;20025;-69
2021/09/15 02:27:26;;;;;;;8.00;5.30;;;18.40;97.80;;;;;;5052890;28;20112;-69
2021/09/15 02:29:52;;;;;;;10.98;5.28;;;18.40;97.70;;;;;;5036504;28;20060;-70
2021/09/15 02:32:18;;;;;;;8.15;4.97;;;18.50;96.80;;;;;;5052675;28;20024;-70
2021/09/15 02:34:46;;;;;;;7.95;4.90;;;18.60;96.50;;;;;;5054828;28;20029;-68
2021/09/15 02:37:11;;;;;;;9.23;5.38;;;18.70;96.40;;;;;;5053257;28;20025;-69
2021/09/15 02:39:37;;;;;;;8.05;4.80;;;18.80;95.60;;;;;;5055127;28;20366;-69
2021/09/15 02:42:03;;;;;;;8.80;5.03;;;18.90;94.60;;;;;;5035824;28;20194;-69
2021/09/15 02:44:28;;;;;;;9.65;4.65;;;19.00;94.40;;;;;;5055304;28;20071;-70
2021/09/15 02:46:54;;;;;;;8.32;4.80;;;19.10;94.50;;;;;;5054101;28;20096;-68
2021/09/15 02:49:27;;;;;;;10.70;5.15;;;19.10;95.10;;;;;;5055919;28;20104;-69
2021/09/15 02:51:53;;;;;;;8.70;4.53;;;19.10;94.90;;;;;;5045618;28;20116;-69
2021/09/15 02:54:19;;;;;;;9.63;5.10;;;19.10;95.40;;;;;;5055205;28;20032;-69
2021/09/15 02:56:45;;;;;;;17.73;5.45;;;19.10;95.50;;;;;;5053808;23;20057;-70
2021/09/15 02:59:10;;;;;;;8.80;4.68;;;19.00;96.00;;;;;;4995311;28;20046;-71
2021/09/15 03:01:36;;;;;;;10.27;5.10;;;18.80;96.70;;;;;;4990701;28;20034;-70
2021/09/15 03:04:02;;;;;;;8.85;5.00;;;18.70;97.20;;;;;;5007109;28;20470;-70
2021/09/15 03:06:27;;;;;;;8.40;5.47;;;18.50;97.40;;;;;;4995951;28;20035;-70
2021/09/15 03:08:53;;;;;;;11.60;5.20;;;18.40;97.60;;;;;;4982584;28;20037;-70
2021/09/15 03:11:18;;;;;;;10.55;4.85;;;18.30;97.90;;;;;;4999378;28;20113;-70
2021/09/15 03:13:46;;;;;;;9.27;5.03;;;18.30;97.70;;;;;;4998984;28;20433;-72
2021/09/15 03:16:12;;;;;;;9.13;5.45;;;18.40;97.50;;;;;;5006901;28;20028;-70
2021/09/15 03:18:38;;;;;;;8.23;5.18;;;18.30;97.60;;;;;;4988328;28;20079;-70
2021/09/15 03:21:04;;;;;;;9.70;5.32;;;18.30;97.90;;;;;;4989825;28;20446;-71
2021/09/15 03:23:29;;;;;;;7.75;5.13;;;18.30;97.60;;;;;;4981253;28;20038;-70
2021/09/15 03:25:55;;;;;;;9.75;5.03;;;18.30;97.70;;;;;;4995284;28;20034;-70
2021/09/15 03:28:20;;;;;;;10.27;4.80;;;18.40;97.30;;;;;;4987728;28;20081;-70
2021/09/15 03:30:46;;;;;;;9.20;5.45;;;18.50;96.70;;;;;;4983229;28;20030;-70
2021/09/15 03:33:12;;;;;;;9.35;4.80;;;18.50;96.60;;;;;;4994470;28;20034;-70
2021/09/15 03:35:40;;;;;;;12.25;5.82;;;18.60;96.80;;;;;;4975471;28;20033;-70
2021/09/15 03:38:06;;;;;;;10.20;4.93;;;18.60;96.70;;;;;;5001469;28;20030;-70
2021/09/15 03:40:31;;;;;;;10.13;5.18;;;18.60;97.10;;;;;;5000441;28;20041;-70
2021/09/15 03:42:57;;;;;;;9.93;5.00;;;18.50;96.60;;;;;;4986690;28;20057;-70
2021/09/15 03:45:23;;;;;;;9.32;5.55;;;18.60;97.00;;;;;;4996608;28;20132;-69
2021/09/15 03:47:48;;;;;;;9.65;5.15;;;18.60;96.60;;;;;;4998166;28;20030;-70
2021/09/15 03:50:14;;;;;;;11.10;5.22;;;18.60;96.80;;;;;;5003448;28;20326;-70
2021/09/15 03:52:40;;;;;;;7.55;4.50;;;18.50;97.40;;;;;;5000770;28;20041;-70
2021/09/15 03:55:06;;;;;;;9.85;5.63;;;18.40;97.90;;;;;;4999969;28;20080;-70
2021/09/15 03:57:31;;;;;;;11.13;5.72;;;18.30;98.00;;;;;;4998783;28;20042;-70
2021/09/15 03:59:57;;;;;;;10.35;5.88;;;18.20;98.00;;;;;;5001061;28;20030;-70
2021/09/15 04:02:23;;;;;;;11.35;6.05;;;18.10;98.00;;;;;;5006091;28;20074;-70
2021/09/15 04:04:48;;;;;;;9.82;5.78;;;18.00;98.00;;;;;;5016971;28;20030;-70
2021/09/15 04:07:14;;;;;;;10.07;6.07;;;18.00;98.00;;;;;;5013020;28;20040;-70
2021/09/15 04:09:40;;;;;;;10.30;5.45;;;18.00;98.00;;;;;;4999650;28;20076;-70
2021/09/15 04:12:06;;;;;;;8.90;6.05;;;18.00;98.00;;;;;;5008108;28;20049;-69
2021/09/15 04:14:31;;;;;;;9.32;5.53;;;18.00;98.00;;;;;;5007021;28;20038;-69
2021/09/15 04:16:57;;;;;;;9.90;5.20;;;18.10;98.00;;;;;;5005377;28;20394;-70
2021/09/15 04:19:23;;;;;;;11.15;6.03;;;18.20;98.00;;;;;;4998825;28;20030;-70
2021/09/15 04:21:48;;;;;;;9.60;5.47;;;18.30;98.00;;;;;;5014589;28;20022;-69
2021/09/15 04:32:26;;;;;;;9.32;5.07;;;18.20;98.00;;;;;;4992180;28;20026;-70
2021/09/15 04:34:52;;;;;;;12.00;5.75;;;18.10;98.00;;;;;;4987340;28;20043;-70
2021/09/15 04:37:17;;;;;;;10.68;6.15;;;17.90;98.00;;;;;;5001370;28;20026;-69
2021/09/15 04:39:43;;;;;;;11.82;6.30;;;17.80;98.00;;;;;;5008583;28;20101;-70
2021/09/15 04:42:08;;;;;;;10.98;6.10;;;17.70;98.00;;;;;;5007649;28;20395;-71
2021/09/15 04:44:34;;;;;;;10.70;5.60;;;17.60;98.00;;;;;;5013108;28;20022;-70
2021/09/15 04:47:00;;;;;;;10.30;6.32;;;17.60;98.00;;;;;;5003500;28;20026;-70
2021/09/15 04:49:26;;;;;;;12.15;6.00;;;17.60;98.00;;;;;;4998077;28;20033;-69
2021/09/15 04:51:51;;;;;;;15.10;6.75;;;17.50;98.00;;;;;;5010626;28;20089;-69
2021/09/15 04:54:17;;;;;;;10.55;5.75;;;17.40;98.00;;;;;;4999019;28;20566;-70
2021/09/15 04:56:42;;;;;;;10.50;6.32;;;17.50;98.00;;;;;;4988904;28;20321;-70
2021/09/15 04:59:08;;;;;;;10.15;5.38;;;17.50;98.00;;;;;;4992270;28;20033;-70
2021/09/15 05:01:36;;;;;;;11.80;6.45;;;17.40;98.00;;;;;;5001132;28;20124;-69
2021/09/15 05:04:02;;;;;;;11.95;5.88;;;17.50;98.00;;;;;;4988933;28;20372;-70
2021/09/15 05:06:29;;;;;;;11.80;5.97;;;17.50;98.00;;;;;;5005471;28;20030;-70
2021/09/15 05:08:54;;;;;;;9.70;6.13;;;17.50;98.00;;;;;;5002709;28;20114;-70
2021/09/15 05:11:20;;;;;;;11.05;6.18;;;17.40;98.00;;;;;;5000221;28;20065;-70
2021/09/15 05:13:46;;;;;;;10.15;6.47;;;17.40;98.00;;;;;;5009468;28;20050;-70
2021/09/15 05:16:11;;;;;;;13.75;6.57;;;17.30;97.90;;;;;;4998393;28;20030;-70
2021/09/15 05:18:40;;;;;;;10.82;6.15;;;17.30;97.80;;;;;;4997956;28;20038;-70
2021/09/15 05:21:06;;;;;;;11.77;6.18;;;17.30;97.80;;;;;;4997974;28;20022;-70
2021/09/15 05:23:32;;;;;;;13.55;7.80;;;17.30;97.70;;;;;;4998318;28;20030;-70
2021/09/15 05:25:57;;;;;;;9.55;5.97;;;17.20;97.60;;;;;;4998257;28;20325;-70
2021/09/15 05:28:23;;;;;;;14.05;6.72;;;17.10;97.20;;;;;;4997086;28;20041;-70
2021/09/15 05:30:49;;;;;;;15.40;6.25;;;17.10;97.10;;;;;;4998044;28;20304;-70
2021/09/15 05:33:15;;;;;;;11.18;6.53;;;17.10;96.90;;;;;;4980867;28;20022;-70
2021/09/15 05:35:40;;;;;;;12.52;5.70;;;17.10;97.00;;;;;;5009968;28;20429;-70
2021/09/15 05:38:06;;;;;;;11.13;5.80;;;17.10;97.10;;;;;;4997936;28;20034;-70
2021/09/15 05:40:32;;;;;;;11.50;6.22;;;17.10;97.30;;;;;;4998012;28;20335;-70
2021/09/15 05:42:57;;;;;;;11.50;6.78;;;17.10;96.70;;;;;;4979524;28;20037;-70
2021/09/15 05:45:23;;;;;;;14.15;6.45;;;17.10;96.40;;;;;;4997789;28;20038;-70
2021/09/15 05:47:49;;;;;;;10.35;6.32;;;17.10;96.30;;;;;;4998028;28;20033;-70
2021/09/15 05:50:14;;;;;;;13.38;6.93;;;17.10;96.10;;;;;;4997707;28;20041;-71
2021/09/15 05:52:40;;;;;;;11.25;6.57;;;17.10;95.90;;;;;;4997795;28;20061;-72
2021/09/15 05:55:06;;;;;;;10.93;6.18;;;17.10;96.10;;;;;;5000789;28;20026;-72
2021/09/15 05:57:33;;;;;;;11.27;5.65;;;17.10;96.10;;;;;;5008680;28;20077;-72
2021/09/15 05:59:58;;;;;;;10.95;7.32;;;17.10;96.40;;;;;;5008516;28;20109;-71
2021/09/15 06:02:26;;;;;;;11.07;6.00;;;17.10;96.50;;;;;;4997487;28;20061;-71
2021/09/15 06:04:52;;;;;;;9.77;5.80;;;17.10;96.60;;;;;;4997480;28;20404;-71
2021/09/15 06:07:18;;;;;;;13.25;6.57;;;17.10;96.30;;;;;;4998503;28;20081;-71
2021/09/15 06:09:44;;;;;;;11.40;6.13;;;17.10;96.20;;;;;;4997466;28;20026;-71
2021/09/15 06:12:09;;;;;;;12.48;6.60;;;17.00;96.00;;;;;;4996217;28;20335;-70
2021/09/15 06:14:38;;;;;;;12.02;7.10;;;17.00;95.20;;;;;;4997262;28;20069;-70
2021/09/15 06:17:04;;;;;;;13.32;6.25;;;17.00;94.80;;;;;;4996769;28;20413;-70
2021/09/15 06:19:30;;;;;;;11.52;6.80;;;17.00;94.20;;;;;;4977650;28;20050;-70
2021/09/15 06:21:55;;;;;;;16.48;7.28;;;17.10;94.10;;;;;;4978721;28;20062;-70
2021/09/15 06:24:21;;;;;;;11.45;5.95;;;17.10;94.00;;;;;;4977910;28;20421;-70
2021/09/15 06:26:48;;;;;;;13.68;7.65;;;17.10;94.00;;;;;;4976554;28;20259;-70
2021/09/15 06:29:14;;;;;;;15.43;6.32;;;17.10;93.60;;;;;;4992406;28;20054;-70
2021/09/15 06:31:44;;;;;;;12.18;7.07;;;17.10;93.40;;;;;;4996863;28;20038;-70
2021/09/15 06:34:10;;;;;;;13.80;6.68;;;17.10;93.20;;;;;;4997028;28;20319;-70
2021/09/15 06:36:39;;;;;;;17.02;7.55;;;17.00;93.20;;;;;;4997343;28;20077;-70
2021/09/15 06:39:04;;;;;;;11.98;6.90;;;17.00;92.90;;;;;;4979783;28;20129;-70
2021/09/15 06:41:30;;;;;;;12.48;7.40;;;17.00;92.50;;;;;;4996986;28;20165;-70
2021/09/15 06:43:56;;;;;;;14.38;7.35;;;17.00;92.60;;;;;;4995699;28;20042;-70
2021/09/15 06:46:23;;;;;;;9.90;7.03;;;17.00;92.40;;;;;;4996736;28;20105;-70
2021/09/15 06:48:49;;;;;;;13.48;7.18;;;17.00;92.20;;;;;;4996842;28;20038;-70
2021/09/15 06:51:15;;;;;;;12.27;6.80;;;17.10;92.20;;;;;;4996743;28;20027;-70
2021/09/15 06:53:41;;;;;;;12.45;7.63;;;17.10;91.90;;;;;;4979437;28;20146;-70
2021/09/15 06:56:07;;;;;;;16.88;7.80;;;17.10;91.90;;;;;;4996356;28;20109;-70
2021/09/15 06:58:32;;;;;;;11.45;5.72;;;17.20;92.20;;;;;;4995360;28;20432;-70
2021/09/15 07:00:58;;;;;;;12.77;6.97;;;17.20;92.50;;;;;;4996767;28;20157;-70
2021/09/15 07:03:24;;;;;;;13.90;6.45;;;17.20;92.90;;;;;;4996495;28;20026;-70
2021/09/15 07:05:49;;;;;;;14.77;7.45;;;17.20;93.10;;;;;;4996833;28;20109;-70
2021/09/15 07:08:15;;;;;;;14.05;6.95;;;17.20;92.90;;;;;;4980395;28;20045;-70
2021/09/15 07:10:41;;;;;;;14.65;6.90;;;17.30;93.50;;;;;;4996209;28;20110;-70
2021/09/15 07:13:08;;;;;;;11.80;6.78;;;17.30;93.30;;;;;;4995542;28;20327;-70
2021/09/15 07:15:33;;;;;;;12.52;7.18;;;17.30;93.50;;;;;;4996316;28;20030;-70
2021/09/15 07:17:59;;;;;;;11.52;7.20;;;17.20;93.60;;;;;;4996012;28;20031;-70
2021/09/15 07:20:26;;;;;;;11.73;7.28;;;17.30;93.40;;;;;;4996557;28;20022;-70
2021/09/15 07:22:52;;;;;;;13.75;6.55;;;17.30;93.70;;;;;;4996405;28;20101;-70
2021/09/15 07:25:17;;;;;;;13.10;6.82;;;17.30;93.40;;;;;;4996614;28;20380;-70
2021/09/15 07:27:46;;;;;;;9.15;5.80;;;17.40;93.30;;;;;;4995270;28;20027;-70
2021/09/15 07:30:12;;;;;;;11.43;6.25;;;17.40;94.30;;;;;;4996424;28;20089;-70
2021/09/15 07:32:38;;;;;;;11.05;7.00;;;17.50;94.60;;;;;;4996179;28;20030;-70
2021/09/15 07:35:04;;;;;;;10.40;6.07;;;17.50;94.90;;;;;;4996271;28;20430;-70
2021/09/15 07:37:30;;;;;;;9.18;5.40;;;17.50;96.00;;;;;;5007898;28;20084;-70
2021/09/15 07:39:56;;;;;;;11.10;4.68;;;17.50;95.80;;;;;;4989186;28;20027;-70
2021/09/15 07:42:22;;;;;;;8.05;4.15;;;17.50;96.90;;;;;;4994885;28;20034;-70
2021/09/15 07:44:48;;;;;;;11.43;3.97;;;17.50;97.50;;;;;;4996246;28;20014;-70
2021/09/15 07:47:16;;;;;;;14.15;3.75;;;17.50;98.00;;;;;;4995916;28;20018;-70
2021/09/15 07:49:43;;;;;;;9.95;4.00;;;17.60;98.00;;;;;;5010919;28;20030;-70
2021/09/15 07:52:10;;;;;;;9.48;4.53;;;17.60;98.00;;;;;;5015874;28;20026;-70
2021/09/15 07:54:35;;;;;;;11.43;5.00;;;17.60;98.00;;;;;;5015895;28;20411;-70
2021/09/15 07:57:01;;;;;;;10.13;5.28;;;17.70;97.90;;;;;;5014526;28;20060;-70
2021/09/15 07:59:27;;;;;;;9.68;4.45;;;17.80;97.90;;;;;;5015620;28;20045;-70
2021/09/15 08:01:52;;;;;;;10.70;4.53;;;17.90;97.80;;;;;;4995829;28;20023;-70
2021/09/15 08:04:18;;;;;;;11.48;5.43;;;17.90;97.50;;;;;;4995909;28;20118;-70
2021/09/15 08:06:44;;;;;;;10.95;4.65;;;17.90;97.80;;;;;;4987869;28;20412;-70
2021/09/15 08:09:09;;;;;;;11.45;4.78;;;17.90;97.10;;;;;;5001538;28;20055;-70
2021/09/15 08:11:35;;;;;;;9.60;4.50;;;18.00;97.20;;;;;;5005361;28;20042;-70
2021/09/15 08:14:01;;;;;;;9.05;4.50;;;18.00;97.20;;;;;;4995567;28;20033;-70
2021/09/15 08:16:27;;;;;;;10.43;5.07;;;18.00;97.00;;;;;;4995818;28;20105;-70
2021/09/15 08:18:52;;;;;;;10.18;4.10;;;18.10;96.90;;;;;;4995835;28;20030;-70
2021/09/15 08:21:18;;;;;;;11.13;4.25;;;18.10;97.30;;;;;;4996277;28;20030;-70
2021/09/15 08:23:46;;;;;;;12.13;4.13;;;18.10;97.90;;;;;;4999372;28;20082;-70
2021/09/15 08:26:12;;;;;;;9.40;4.15;;;18.10;98.00;;;;;;4999531;28;20065;-70
2021/09/15 08:28:39;;;;;;;11.63;4.43;;;18.00;98.00;;;;;;4998252;28;20058;-70
2021/09/15 08:31:09;;;;;;;13.80;4.82;;;18.00;98.00;;;;;;4999890;28;20335;-70
2021/09/15 08:33:35;;;;;;;10.40;4.68;;;18.00;98.00;;;;;;4999293;28;20101;-70
2021/09/15 08:36:00;;;;;;;8.75;4.43;;;18.00;98.00;;;;;;4999132;28;20137;-69
2021/09/15 08:38:26;;;;;;;14.38;5.55;;;18.00;98.00;;;;;;4999244;28;20058;-69
2021/09/15 08:40:53;;;;;;;10.43;6.55;;;17.90;98.00;;;;;;4999200;28;20022;-69
2021/09/15 08:43:22;;;;;;;14.20;7.45;;;17.90;98.00;;;;;;4997900;28;20026;-69
2021/09/15 08:45:51;;;;;;;16.55;6.97;;;17.90;98.00;;;;;;4999077;28;20080;-71
2021/09/15 08:48:18;;;;;;;15.10;6.63;;;17.80;98.00;;;;;;4998870;28;20109;-71
2021/09/15 08:50:49;;;;;;;10.60;6.40;;;17.90;98.00;;;;;;4998695;28;20547;-70
2021/09/15 08:53:17;;;;;;;9.77;5.82;;;18.00;98.00;;;;;;4998676;28;20042;-70
2021/09/15 08:55:46;;;;;;;14.07;6.43;;;18.10;98.00;;;;;;4998801;28;20028;-70
2021/09/15 08:58:13;;;;;;;10.90;6.22;;;18.10;98.00;;;;;;4997554;28;20047;-70
2021/09/15 09:00:39;;;;;;;13.55;6.03;;;18.10;98.00;;;;;;5006332;28;20025;-70
2021/09/15 09:03:04;;;;;;;9.75;5.68;;;18.10;98.00;;;;;;4998631;28;20032;-70
2021/09/15 09:05:30;;;;;;;12.25;5.60;;;18.20;98.00;;;;;;5013966;28;20026;-70
2021/09/15 09:07:56;;;;;;;12.45;5.65;;;18.20;98.00;;;;;;5018074;28;20304;-70
2021/09/15 09:10:22;;;;;;;10.23;5.50;;;18.10;98.00;;;;;;5018251;28;20105;-70
2021/09/15 09:12:47;;;;;;;8.93;5.55;;;18.10;98.00;;;;;;5001925;28;20390;-70
2021/09/15 09:15:16;;;;;;;13.00;6.80;;;18.00;98.00;;;;;;4998465;28;20061;-70
2021/09/15 09:17:42;;;;;;;14.15;6.32;;;17.80;98.00;;;;;;4998452;28;20031;-71
2021/09/15 09:20:31;;;;;;;11.60;5.80;;;17.70;98.00;;;;;;4998161;28;20518;-70
2021/09/15 09:23:13;;;;;;;15.18;6.63;;;17.50;98.00;;;;;;5011991;28;20034;-70
2021/09/15 09:25:44;;;;;;;8.52;5.38;;;17.40;98.00;;;;;;5017589;28;20065;-71
2021/09/15 09:28:22;;;;;;;11.70;5.88;;;17.20;98.00;;;;;;4999240;28;20052;-73
2021/09/15 09:30:51;;;;;;;11.32;6.35;;;17.00;97.70;;;;;;5017834;28;20026;-72
2021/09/15 09:33:17;;;;;;;11.90;6.68;;;16.90;97.20;;;;;;5017729;28;20113;-71
2021/09/15 09:35:56;;;;;;;10.82;5.97;;;16.90;97.10;;;;;;5010563;28;20384;-71
2021/09/15 09:38:29;;;;;;;10.45;5.47;;;16.90;96.90;;;;;;4997832;28;20081;-72
2021/09/15 09:40:59;;;;;;;10.57;5.20;;;17.00;96.90;;;;;;4998245;28;20034;-72
2021/09/15 09:43:37;;;;;;;8.07;4.70;;;17.10;97.30;;;;;;4996811;28;20026;-71
2021/09/15 09:46:04;;;;;;;10.38;5.45;;;17.10;97.80;;;;;;4998829;28;20097;-72
2021/09/15 09:48:39;;;;;;;8.70;4.82;;;17.20;97.90;;;;;;4997941;28;20030;-72
2021/09/15 09:51:22;;;;;;;8.50;4.38;;;17.10;98.00;;;;;;4997695;28;20030;-72
2021/09/15 09:54:06;;;;;;;9.35;4.95;;;17.20;98.00;;;;;;4997687;28;20054;-72
2021/09/15 09:56:34;;;;;;;11.57;6.72;;;17.10;98.00;;;;;;4997495;28;20332;-72
2021/09/15 09:59:01;;;;;;;9.55;5.10;;;17.20;98.00;;;;;;4996808;28;20038;-72
2021/09/15 10:01:29;;;;;;;7.90;4.68;;;17.30;98.00;;;;;;4997231;28;20030;-72
2021/09/15 10:03:56;;;;;;;8.93;4.85;;;17.40;98.00;;;;;;4997214;28;20101;-71
2021/09/15 10:06:23;;;;;;;9.10;5.00;;;17.50;98.00;;;;;;4997304;28;20022;-72
2021/09/15 10:08:49;;;;;;;9.93;5.38;;;17.60;98.00;;;;;;4997362;28;20035;-71
2021/09/15 10:11:16;;;;;;;8.35;4.82;;;17.70;98.00;;;;;;4997338;28;20034;-71
2021/09/15 10:13:42;;;;;;;10.07;4.97;;;17.80;98.00;;;;;;4996201;28;20307;-71
2021/09/15 10:16:08;;;;;;;13.38;5.95;;;17.90;98.00;;;;;;4998334;28;20030;-71
2021/09/15 10:18:34;;;;;;;11.65;5.30;;;18.00;98.00;;;;;;5001789;28;20056;-71
2021/09/15 10:21:04;;;;;;;7.88;4.78;;;18.10;98.00;;;;;;5016647;28;20411;-71
2021/09/15 10:23:37;;;;;;;9.35;5.30;;;18.20;98.00;;;;;;5016894;28;20057;-71
2021/09/15 10:26:32;;;;;;;7.85;4.93;;;18.30;98.00;;;;;;5016771;28;20054;-71
2021/09/15 10:29:20;;;;;;;9.60;4.95;;;18.40;98.00;;;;;;5015852;28;20049;-71
2021/09/15 10:31:58;;;;;;;8.75;4.85;;;18.50;98.00;;;;;;4996656;28;20126;-71
2021/09/15 10:34:39;;;;;;;10.05;4.65;;;18.30;98.00;;;;;;4997095;28;20034;-71
2021/09/15 10:37:09;;;;;;;8.40;5.00;;;18.30;98.00;;;;;;4997114;28;20029;-71
2021/09/15 10:40:01;;;;;;;13.98;5.15;;;18.40;98.00;;;;;;4979649;28;20046;-71
2021/09/15 10:42:38;;;;;;;8.80;4.63;;;18.60;98.00;;;;;;4995524;28;20026;-71
2021/09/15 10:45:15;;;;;;;7.50;4.78;;;19.00;98.00;;;;;;4997440;28;20076;-71
2021/09/15 10:47:53;;;;;;;10.80;4.55;;;19.30;97.60;;;;;;4996791;28;20097;-71
2021/09/15 10:50:27;;;;;;;9.57;5.25;;;19.40;97.60;;;;;;4996804;28;20031;-71
2021/09/15 10:53:13;;;;;;;8.27;4.70;;;19.50;97.40;;;;;;4996628;28;20026;-71
2021/09/15 10:55:43;;;;;;;8.77;4.43;;;19.60;97.40;;;;;;4996006;28;20053;-71
2021/09/15 10:58:23;;;;;;;9.82;4.90;;;19.60;96.30;;;;;;4995011;28;20050;-71
2021/09/15 11:01:00;;;;;;;8.25;4.53;;;19.30;97.60;;;;;;4996613;28;20023;-71
2021/09/15 11:03:30;;;;;;;7.68;4.43;;;19.30;97.90;;;;;;4996664;28;20022;-71
2021/09/15 11:06:17;;;;;;;8.32;3.97;;;19.30;97.00;;;;;;4979236;28;20446;-71
2021/09/15 11:08:49;;;;;;;8.18;3.80;;;19.30;96.80;;;;;;4996178;28;20042;-71
2021/09/15 11:11:23;;;;;;;8.55;4.18;;;19.30;96.60;;;;;;4996528;28;20050;-71
2021/09/15 11:13:53;;;;;;;8.45;3.75;;;19.50;97.20;;;;;;4995426;28;20035;-71
2021/09/15 11:16:37;;;;;;;7.65;4.38;;;19.80;96.30;;;;;;5010071;28;20430;-71
2021/09/15 11:19:19;;;;;;;7.90;3.85;;;20.00;95.20;;;;;;5004225;28;20558;-71
2021/09/15 11:21:48;;;;;;;6.72;3.60;;;19.90;95.00;;;;;;4979170;28;20486;-71
2021/09/15 11:24:24;;;;;;;10.25;3.92;;;19.70;94.10;;;;;;4995725;28;20358;-71
2021/09/15 11:26:55;;;;;;;7.88;3.80;;;19.80;94.70;;;;;;4994957;28;20037;-71
2021/09/15 11:29:42;;;;;;;8.45;3.70;;;19.80;94.50;;;;;;4996418;28;20026;-71
2021/09/15 11:32:15;;;;;;;7.28;3.90;;;19.60;94.10;;;;;;4996272;28;20061;-70
2021/09/15 11:34:46;;;;;;;6.28;3.70;;;19.70;94.20;;;;;;4980067;28;20061;-70
2021/09/15 11:37:19;;;;;;;7.28;3.67;;;19.90;94.40;;;;;;5006166;28;20438;-70
2021/09/15 11:39:55;;;;;;;8.00;3.92;;;20.00;93.10;;;;;;5016070;28;20113;-72
2021/09/15 11:42:23;;;;;;;8.50;3.58;;;20.30;93.00;;;;;;5014849;28;20048;-72
2021/09/15 11:44:49;;;;;;;7.18;3.72;;;20.40;93.10;;;;;;5015863;28;20366;-71
2021/09/15 11:47:26;;;;;;;7.30;3.95;;;20.80;92.10;;;;;;5015732;28;20101;-71
2021/09/15 11:49:52;;;;;;;11.20;3.80;;;21.20;90.70;;;;;;5015825;28;20033;-71
2021/09/15 11:52:18;;;;;;;7.88;4.00;;;21.70;88.60;;;;;;5015668;28;20358;-71
2021/09/15 11:54:49;;;;;;;16.58;10.68;;;21.90;89.60;;;;;;5013731;28;20414;-71
2021/09/15 11:57:18;;;;;;;7.53;3.67;;;22.20;87.70;;;;;;4992011;28;20043;-71
2021/09/15 11:59:44;;;;;;;8.18;3.58;;;22.60;85.50;;;;;;5001609;28;20031;-71
2021/09/15 12:02:14;;;;;;;6.68;3.42;;;22.80;86.20;;;;;;5007349;28;20026;-71
2021/09/15 12:04:44;;;;;;;7.85;3.78;;;23.20;85.40;;;;;;5002875;28;20018;-71
2021/09/15 12:07:13;;;;;;;9.40;3.38;;;23.50;82.80;;;;;;4998992;28;20022;-71
2021/09/15 12:09:42;;;;;;;7.63;3.00;;;23.60;80.40;;;;;;4998967;28;20030;-70
2021/09/15 12:12:09;;;;;;;9.77;3.72;;;24.30;81.90;;;;;;4998219;28;20030;-70
2021/09/15 12:14:36;;;;;;;9.07;3.22;;;25.20;80.90;;;;;;4999582;28;20022;-71
2021/09/15 12:17:06;;;;;;;6.85;3.00;;;25.30;78.40;;;;;;5004188;28;20072;-70
2021/09/15 12:19:32;;;;;;;7.15;3.22;;;24.50;77.50;;;;;;4999919;28;20644;-70
2021/09/15 12:21:58;;;;;;;8.30;3.65;;;23.60;79.00;;;;;;4991743;28;20058;-68
2021/09/15 12:24:26;;;;;;;8.70;3.75;;;22.80;82.40;;;;;;5001209;28;20019;-68
2021/09/15 12:26:52;;;;;;;9.23;3.50;;;22.50;82.70;;;;;;4997395;28;20416;-68
2021/09/15 12:29:20;;;;;;;9.00;3.58;;;22.50;82.50;;;;;;4998872;28;20117;-68
2021/09/15 12:31:48;;;;;;;10.35;3.33;;;22.50;82.70;;;;;;4999440;28;20034;-70
2021/09/15 12:34:30;;;;;;;6.32;3.30;;;22.40;82.80;;;;;;4994654;28;20061;-67
2021/09/15 12:37:12;;;;;;;6.07;3.33;;;22.50;82.90;;;;;;4994854;28;20029;-68
2021/09/15 12:39:55;;;;;;;10.63;3.63;;;22.70;83.90;;;;;;4998821;28;20053;-68
2021/09/15 12:42:25;;;;;;;8.18;3.40;;;23.40;82.60;;;;;;4988953;28;20034;-67
2021/09/15 12:45:17;;;;;;;7.97;3.85;;;24.00;80.40;;;;;;4990315;28;20088;-67
2021/09/15 12:47:46;;;;;;;6.97;3.35;;;23.70;80.00;;;;;;4977538;28;20039;-67
2021/09/15 12:50:18;;;;;;;6.47;3.10;;;23.60;81.40;;;;;;4979265;28;20368;-67
2021/09/15 12:52:46;;;;;;;7.15;3.15;;;24.00;80.40;;;;;;4979276;28;20339;-67